createdAt,value
2023-05-23T00:01:45.601Z,99.90
2023-05-23T00:04:19.087Z,99.90
2023-05-23T00:06:47.324Z,99.90
2023-05-23T00:09:15.160Z,99.90
2023-05-23T00:11:45.851Z,99.90
2023-05-23T00:14:14.355Z,99.90
2023-05-23T00:16:43.136Z,99.90
2023-05-23T00:19:17.375Z,99.90
2023-05-23T00:21:48.814Z,99.90
2023-05-23T00:24:18.892Z,99.90
2023-05-23T00:26:46.665Z,99.90
2023-05-23T00:29:16.884Z,99.90
2023-05-23T00:31:46.910Z,99.90
2023-05-23T00:34:15.293Z,99.90
2023-05-23T00:36:43.865Z,99.90
2023-05-23T00:39:19.378Z,99.90
2023-05-23T00:41:52.734Z,99.90
2023-05-23T00:44:21.556Z,99.90
2023-05-23T00:46:53.858Z,99.90
2023-05-23T00:49:21.377Z,99.90
2023-05-23T00:51:51.859Z,99.90
2023-05-23T00:54:39.478Z,99.90
2023-05-23T00:57:07.087Z,99.90
2023-05-23T00:59:36.290Z,99.90
2023-05-23T01:02:04.029Z,99.90
2023-05-23T01:04:34.298Z,99.90
2023-05-23T01:07:01.707Z,99.90
2023-05-23T01:09:29.553Z,99.90
2023-05-23T01:12:19.009Z,99.90
2023-05-23T01:14:57.302Z,99.90
2023-05-23T01:17:36.273Z,99.90
2023-05-23T01:20:12.800Z,99.90
2023-05-23T01:23:03.802Z,99.90
2023-05-23T01:26:00.754Z,99.90
2023-05-23T01:28:40.481Z,99.90
2023-05-23T01:31:11.279Z,99.90
2023-05-23T01:33:40.423Z,99.90
2023-05-23T01:36:08.204Z,99.90
2023-05-23T01:38:35.322Z,99.90
2023-05-23T01:41:02.457Z,99.90
2023-05-23T01:43:29.681Z,99.90
2023-05-23T01:45:57.852Z,99.90
2023-05-23T01:48:27.433Z,99.90
2023-05-23T01:50:55.329Z,99.90
2023-05-23T01:53:24.022Z,99.90
2023-05-23T01:55:51.949Z,99.90
2023-05-23T01:58:19.320Z,99.90
2023-05-23T02:00:46.587Z,99.90
2023-05-23T02:03:13.867Z,99.90
2023-05-23T02:05:41.304Z,99.90
2023-05-23T02:08:08.841Z,99.90
2023-05-23T02:10:35.854Z,99.90
2023-05-23T02:13:02.824Z,99.90
2023-05-23T02:15:30.057Z,99.90
2023-05-23T02:17:57.151Z,99.90
2023-05-23T02:20:24.207Z,99.90
2023-05-23T02:22:51.434Z,99.90
2023-05-23T02:25:18.484Z,99.90
2023-05-23T02:27:45.499Z,99.90
2023-05-23T02:30:13.054Z,99.90
2023-05-23T02:32:40.117Z,99.90
2023-05-23T02:35:07.526Z,99.90
2023-05-23T02:37:34.762Z,99.90
2023-05-23T02:40:01.851Z,99.90
2023-05-23T02:42:29.001Z,99.90
2023-05-23T02:44:56.125Z,99.90
2023-05-23T02:47:23.161Z,99.90
2023-05-23T02:49:50.157Z,99.90
2023-05-23T02:52:18.014Z,99.90
2023-05-23T02:54:45.000Z,99.90
2023-05-23T02:57:12.009Z,99.90
2023-05-23T02:59:39.196Z,99.90
2023-05-23T03:02:06.577Z,99.90
2023-05-23T03:04:33.858Z,99.90
2023-05-23T03:07:01.050Z,99.90
2023-05-23T03:09:28.088Z,99.90
2023-05-23T03:11:55.147Z,99.90
2023-05-23T03:14:22.254Z,99.90
2023-05-23T03:16:49.430Z,99.90
2023-05-23T03:19:16.584Z,99.90
2023-05-23T03:21:44.930Z,99.90
2023-05-23T03:24:11.914Z,99.90
2023-05-23T03:26:38.944Z,99.90
2023-05-23T03:29:06.699Z,99.90
2023-05-23T03:31:33.804Z,99.90
2023-05-23T03:34:00.881Z,99.90
2023-05-23T03:36:28.685Z,99.90
2023-05-23T03:38:55.859Z,99.90
2023-05-23T03:41:23.000Z,99.90
2023-05-23T03:43:50.185Z,99.90
2023-05-23T03:46:17.336Z,99.90
2023-05-23T03:48:44.551Z,99.90
2023-05-23T03:51:13.752Z,99.90
2023-05-23T03:53:41.039Z,99.90
2023-05-23T03:56:08.123Z,99.90
2023-05-23T03:58:35.298Z,99.90
2023-05-23T04:01:03.183Z,99.90
2023-05-23T04:03:32.992Z,99.90
2023-05-23T04:06:03.177Z,99.90
2023-05-23T04:08:34.083Z,99.90
2023-05-23T04:11:02.088Z,99.90
2023-05-23T04:13:31.108Z,99.90
2023-05-23T04:16:01.542Z,99.90
2023-05-23T04:18:28.738Z,99.90
2023-05-23T04:20:55.895Z,99.90
2023-05-23T04:23:22.885Z,99.90
2023-05-23T04:25:49.903Z,99.90
2023-05-23T04:28:17.639Z,99.90
2023-05-23T04:30:45.257Z,99.90
2023-05-23T04:33:13.443Z,99.90
2023-05-23T04:35:41.148Z,99.90
2023-05-23T04:38:08.617Z,99.90
2023-05-23T04:40:35.983Z,99.90
2023-05-23T04:43:14.598Z,99.90
2023-05-23T04:45:42.488Z,99.90
2023-05-23T04:48:09.843Z,99.90
2023-05-23T04:50:38.170Z,99.90
2023-05-23T04:53:05.185Z,99.90
2023-05-23T04:55:32.398Z,99.90
2023-05-23T04:57:59.899Z,99.90
2023-05-23T05:00:27.033Z,99.90
2023-05-23T05:02:54.671Z,99.90
2023-05-23T05:05:21.956Z,99.90
2023-05-23T05:07:48.957Z,99.90
2023-05-23T05:10:17.976Z,99.90
2023-05-23T05:12:51.409Z,99.90
2023-05-23T05:15:19.570Z,99.90
2023-05-23T05:17:49.699Z,99.90
2023-05-23T05:20:19.347Z,99.90
2023-05-23T05:22:46.361Z,99.90
2023-05-23T05:25:13.433Z,99.90
2023-05-23T05:27:40.767Z,99.90
2023-05-23T05:30:09.298Z,99.90
2023-05-23T05:32:36.472Z,99.90
2023-05-23T05:35:04.416Z,99.90
2023-05-23T05:37:31.569Z,99.90
2023-05-23T05:40:10.187Z,99.90
2023-05-23T05:42:37.318Z,99.90
2023-05-23T05:45:04.944Z,99.90
2023-05-23T05:47:32.116Z,99.90
2023-05-23T05:49:59.103Z,99.90
2023-05-23T05:52:26.284Z,99.90
2023-05-23T05:54:53.284Z,99.90
2023-05-23T05:57:29.878Z,99.90
2023-05-23T05:59:57.028Z,99.90
2023-05-23T06:02:24.181Z,99.90
2023-05-23T06:04:51.419Z,99.70
2023-05-23T06:07:18.509Z,99.60
2023-05-23T06:09:45.761Z,99.40
2023-05-23T06:12:12.961Z,99.20
2023-05-23T06:14:40.196Z,99.20
2023-05-23T06:17:07.732Z,98.80
2023-05-23T06:19:35.266Z,98.40
2023-05-23T06:22:02.361Z,98.10
2023-05-23T06:24:29.401Z,97.90
2023-05-23T06:26:57.122Z,97.90
2023-05-23T06:29:25.001Z,97.80
2023-05-23T06:31:51.999Z,97.90
2023-05-23T06:34:19.129Z,97.90
2023-05-23T06:36:55.999Z,97.80
2023-05-23T06:39:23.320Z,97.60
2023-05-23T06:41:50.358Z,97.90
2023-05-23T06:44:30.246Z,97.70
2023-05-23T06:47:02.182Z,97.10
2023-05-23T06:49:29.486Z,96.10
2023-05-23T06:51:56.517Z,95.20
2023-05-23T06:54:23.586Z,94.20
2023-05-23T06:56:50.600Z,94.00
2023-05-23T06:59:17.606Z,93.30
2023-05-23T07:01:44.674Z,92.80
2023-05-23T07:04:12.473Z,92.60
2023-05-23T07:06:40.083Z,92.00
2023-05-23T07:09:07.309Z,92.30
2023-05-23T07:11:35.572Z,91.50
2023-05-23T07:14:02.548Z,91.20
2023-05-23T07:16:29.598Z,91.30
2023-05-23T07:18:56.800Z,90.40
2023-05-23T07:21:24.130Z,90.50
2023-05-23T07:23:51.239Z,90.80
2023-05-23T07:26:18.395Z,90.60
2023-05-23T07:28:45.564Z,90.70
2023-05-23T07:31:13.721Z,90.20
2023-05-23T07:33:41.073Z,88.60
2023-05-23T07:36:08.365Z,89.00
2023-05-23T07:38:35.577Z,88.80
2023-05-23T07:41:10.963Z,89.30
2023-05-23T07:43:39.577Z,89.90
2023-05-23T07:46:06.757Z,89.10
2023-05-23T07:48:34.016Z,88.20
2023-05-23T07:51:01.480Z,87.00
2023-05-23T07:53:28.654Z,86.80
2023-05-23T07:55:55.779Z,87.10
2023-05-23T07:58:23.402Z,87.60
2023-05-23T08:00:52.739Z,89.80
2023-05-23T08:03:20.190Z,88.20
2023-05-23T08:05:47.799Z,88.10
2023-05-23T08:08:14.860Z,85.50
2023-05-23T08:10:42.218Z,84.70
2023-05-23T08:13:12.431Z,83.80
2023-05-23T08:15:39.533Z,83.10
2023-05-23T08:18:06.864Z,82.10
2023-05-23T08:20:34.071Z,82.20
2023-05-23T08:23:04.108Z,81.00
2023-05-23T08:25:32.149Z,81.50
2023-05-23T08:28:00.341Z,81.80
2023-05-23T08:30:28.811Z,81.30
2023-05-23T08:32:56.902Z,82.10
2023-05-23T08:35:24.616Z,81.90
2023-05-23T08:37:52.620Z,81.60
2023-05-23T08:40:23.467Z,81.00
2023-05-23T08:42:51.339Z,80.80
2023-05-23T08:45:19.424Z,83.60
2023-05-23T08:47:47.758Z,83.90
2023-05-23T08:50:18.119Z,83.00
2023-05-23T08:52:58.830Z,82.70
2023-05-23T08:55:28.806Z,80.70
2023-05-23T08:57:57.747Z,79.90
2023-05-23T09:00:26.310Z,80.50
2023-05-23T09:02:54.805Z,79.40
2023-05-23T09:05:22.761Z,78.70
2023-05-23T09:07:51.899Z,79.40
2023-05-23T09:10:22.709Z,77.30
2023-05-23T09:12:50.258Z,75.90
2023-05-23T09:15:17.619Z,75.40
2023-05-23T09:17:45.829Z,75.30
2023-05-23T09:20:17.568Z,74.30
2023-05-23T09:22:48.574Z,73.70
2023-05-23T09:25:16.035Z,73.90
2023-05-23T09:27:46.658Z,74.10
2023-05-23T09:30:15.560Z,75.80
2023-05-23T09:32:42.876Z,77.00
2023-05-23T09:35:14.325Z,76.00
2023-05-23T09:37:47.090Z,74.40
2023-05-23T09:40:15.949Z,74.40
2023-05-23T09:42:45.023Z,75.20
2023-05-23T09:45:13.054Z,74.30
2023-05-23T09:47:40.136Z,74.90
2023-05-23T09:50:08.947Z,74.90
2023-05-23T09:52:39.240Z,74.20
2023-05-23T09:55:07.489Z,74.40
2023-05-23T09:57:42.678Z,73.50
2023-05-23T10:00:11.623Z,74.00
2023-05-23T10:03:00.533Z,73.90
2023-05-23T10:05:43.101Z,73.60
2023-05-23T10:08:39.584Z,72.20
2023-05-23T10:11:17.090Z,71.60
2023-05-23T10:13:46.107Z,73.70
2023-05-23T10:16:23.714Z,73.20
2023-05-23T10:19:01.551Z,70.50
2023-05-23T10:21:36.265Z,69.80
2023-05-23T10:24:05.126Z,69.60
2023-05-23T10:26:32.291Z,70.10
2023-05-23T10:29:00.715Z,69.30
2023-05-23T10:31:29.412Z,67.70
2023-05-23T10:34:20.915Z,68.50
2023-05-23T10:37:02.581Z,69.70
2023-05-23T10:39:56.554Z,68.50
2023-05-23T10:42:46.507Z,68.70
2023-05-23T10:45:16.877Z,71.40
2023-05-23T10:47:44.109Z,72.70
2023-05-23T10:50:17.391Z,73.70
2023-05-23T10:52:45.191Z,73.00
2023-05-23T10:55:17.967Z,72.60
2023-05-23T10:57:45.958Z,72.40
2023-05-23T11:00:17.121Z,71.50
2023-05-23T11:03:00.983Z,70.80
2023-05-23T11:05:31.991Z,70.50
2023-05-23T11:08:15.225Z,70.30
2023-05-23T11:11:02.148Z,68.30
2023-05-23T11:13:55.686Z,69.00
2023-05-23T11:16:43.100Z,66.90
2023-05-23T11:19:19.481Z,68.50
2023-05-23T11:22:02.198Z,70.00
2023-05-23T11:24:52.413Z,70.10
2023-05-23T11:27:34.830Z,68.60
2023-05-23T11:30:04.951Z,68.80
2023-05-23T11:32:32.170Z,69.50
2023-05-23T11:35:03.868Z,69.70
2023-05-23T11:37:32.140Z,69.10
2023-05-23T11:39:59.943Z,68.50
2023-05-23T11:42:27.195Z,68.40
2023-05-23T11:44:54.689Z,68.20
2023-05-23T11:47:22.050Z,69.50
2023-05-23T11:49:49.138Z,68.70
2023-05-23T11:52:16.607Z,68.80
2023-05-23T11:54:44.015Z,68.50
2023-05-23T11:57:14.084Z,67.90
2023-05-23T11:59:41.421Z,68.80
2023-05-23T12:02:08.766Z,69.00
2023-05-23T12:04:39.284Z,69.30
2023-05-23T12:07:07.770Z,69.10
2023-05-23T12:09:43.218Z,68.70
2023-05-23T12:12:11.219Z,69.70
2023-05-23T12:14:44.768Z,68.90
2023-05-23T12:17:13.375Z,69.40
2023-05-23T12:19:45.827Z,69.00
2023-05-23T12:22:12.996Z,69.00
2023-05-23T12:24:49.271Z,69.40
2023-05-23T12:27:19.556Z,70.50
2023-05-23T12:29:52.466Z,69.70
2023-05-23T12:32:19.565Z,69.70
2023-05-23T12:34:46.668Z,69.70
2023-05-23T12:39:45.504Z,70.70
2023-05-23T12:42:12.753Z,70.10
2023-05-23T12:44:43.774Z,69.80
2023-05-23T12:47:10.985Z,69.80
2023-05-23T12:49:38.775Z,68.80
2023-05-23T12:52:06.221Z,68.90
2023-05-23T12:54:33.403Z,69.20
2023-05-23T12:57:00.485Z,68.50
2023-05-23T12:59:27.784Z,68.90
2023-05-23T13:01:55.242Z,70.10
2023-05-23T13:04:22.439Z,68.70
2023-05-23T13:06:49.707Z,69.00
2023-05-23T13:09:16.940Z,68.30
2023-05-23T13:11:45.808Z,70.40
2023-05-23T13:14:14.726Z,70.10
2023-05-23T13:16:57.961Z,69.70
2023-05-23T13:19:27.782Z,70.40
2023-05-23T13:21:55.085Z,70.10
2023-05-23T13:24:28.140Z,69.80
2023-05-23T13:26:55.433Z,70.60
2023-05-23T13:29:24.073Z,71.50
2023-05-23T13:31:51.482Z,71.60
2023-05-23T13:34:32.884Z,71.80
2023-05-23T13:37:02.509Z,72.00
2023-05-23T13:39:29.819Z,71.70
2023-05-23T13:41:57.308Z,72.40
2023-05-23T13:44:24.820Z,72.30
2023-05-23T13:46:56.038Z,74.00
2023-05-23T13:49:28.537Z,72.80
2023-05-23T13:51:58.421Z,72.40
2023-05-23T13:54:25.570Z,72.40
2023-05-23T13:56:52.664Z,70.70
2023-05-23T13:59:21.471Z,70.50
2023-05-23T14:01:49.037Z,70.20
2023-05-23T14:04:16.652Z,68.60
2023-05-23T14:06:44.716Z,68.50
2023-05-23T14:09:13.274Z,68.10
2023-05-23T14:11:40.480Z,69.50
2023-05-23T14:14:07.790Z,68.70
2023-05-23T14:16:37.081Z,69.00
2023-05-23T14:19:04.677Z,68.70
2023-05-23T14:21:31.867Z,68.20
2023-05-23T14:23:58.970Z,68.70
2023-05-23T14:26:26.845Z,68.20
2023-05-23T14:28:53.897Z,68.30
2023-05-23T14:31:22.146Z,68.20
2023-05-23T14:33:50.187Z,67.50
2023-05-23T14:36:20.340Z,67.40
2023-05-23T14:38:49.088Z,68.50
2023-05-23T14:41:16.430Z,67.80
2023-05-23T14:43:43.611Z,68.00
2023-05-23T14:46:10.810Z,68.20
2023-05-23T14:48:38.070Z,69.00
2023-05-23T14:51:07.071Z,68.60
2023-05-23T14:53:34.362Z,69.10
2023-05-23T14:56:03.879Z,69.70
2023-05-23T14:58:31.046Z,68.10
2023-05-23T15:00:58.076Z,68.70
2023-05-23T15:03:25.505Z,68.50
2023-05-23T15:05:52.640Z,68.70
2023-05-23T15:08:19.883Z,68.80
2023-05-23T15:10:47.092Z,69.20
2023-05-23T15:13:14.174Z,69.10
2023-05-23T15:15:41.364Z,69.20
2023-05-23T15:18:11.301Z,69.70
2023-05-23T15:20:38.508Z,69.40
2023-05-23T15:23:06.094Z,69.20
2023-05-23T15:25:48.037Z,68.70
2023-05-23T15:28:16.973Z,68.90
2023-05-23T15:30:44.269Z,68.70
2023-05-23T15:33:12.970Z,69.10
2023-05-23T15:35:40.480Z,68.50
2023-05-23T15:38:07.778Z,67.90
2023-05-23T15:40:34.748Z,67.20
2023-05-23T15:43:01.818Z,67.00
2023-05-23T15:45:28.909Z,67.90
2023-05-23T15:47:57.331Z,67.70
2023-05-23T15:50:24.500Z,69.40
2023-05-23T15:52:51.619Z,68.50
2023-05-23T15:55:18.687Z,68.10
2023-05-23T15:57:48.473Z,67.40
2023-05-23T16:00:16.562Z,69.20
2023-05-23T16:02:43.634Z,68.90
2023-05-23T16:05:10.826Z,69.00
2023-05-23T16:07:37.871Z,69.60
2023-05-23T16:10:05.667Z,69.40
2023-05-23T16:12:32.813Z,69.80
2023-05-23T16:14:59.854Z,70.00
2023-05-23T16:17:26.872Z,71.00
2023-05-23T16:19:54.444Z,71.60
2023-05-23T16:22:21.643Z,72.50
2023-05-23T16:24:48.744Z,72.70
2023-05-23T16:27:16.247Z,73.20
2023-05-23T16:29:43.238Z,73.10
2023-05-23T16:32:10.424Z,71.30
2023-05-23T16:34:37.544Z,69.30
2023-05-23T16:37:04.894Z,68.70
2023-05-23T16:39:31.956Z,69.30
2023-05-23T16:42:02.127Z,69.50
2023-05-23T16:44:29.295Z,69.50
2023-05-23T16:46:56.354Z,69.80
2023-05-23T16:49:23.516Z,70.90
2023-05-23T16:51:50.698Z,71.20
2023-05-23T16:54:17.696Z,71.50
2023-05-23T16:56:44.751Z,71.40
2023-05-23T16:59:14.148Z,72.50
2023-05-23T17:01:43.723Z,72.70
2023-05-23T17:04:10.772Z,72.90
2023-05-23T17:06:38.202Z,73.40
2023-05-23T17:09:05.461Z,72.70
2023-05-23T17:11:32.575Z,72.90
2023-05-23T17:13:59.744Z,73.50
2023-05-23T17:16:26.939Z,74.30
2023-05-23T17:18:54.102Z,74.80
2023-05-23T17:21:21.208Z,75.00
2023-05-23T17:23:48.323Z,76.00
2023-05-23T17:26:16.651Z,77.00
2023-05-23T17:28:45.726Z,77.50
2023-05-23T17:31:12.884Z,77.60
2023-05-23T17:33:40.040Z,78.10
2023-05-23T17:36:07.371Z,78.10
2023-05-23T17:38:36.728Z,78.70
2023-05-23T17:41:03.923Z,78.30
2023-05-23T17:43:31.117Z,78.40
2023-05-23T17:45:58.315Z,78.10
2023-05-23T17:48:38.308Z,78.20
2023-05-23T17:51:12.375Z,78.50
2023-05-23T17:53:41.438Z,78.70
2023-05-23T17:56:09.583Z,79.90
2023-05-23T17:58:38.547Z,79.60
2023-05-23T18:01:07.116Z,80.20
2023-05-23T18:03:34.099Z,80.10
2023-05-23T18:06:01.343Z,80.70
2023-05-23T18:08:28.425Z,80.50
2023-05-23T18:10:55.590Z,80.40
2023-05-23T18:13:22.715Z,79.80
2023-05-23T18:15:49.942Z,80.70
2023-05-23T18:18:18.285Z,80.70
2023-05-23T18:20:45.742Z,80.80
2023-05-23T18:23:12.777Z,81.00
2023-05-23T18:25:39.851Z,81.20
2023-05-23T18:28:06.961Z,81.40
2023-05-23T18:30:33.999Z,81.70
2023-05-23T18:33:01.147Z,82.50
2023-05-23T18:35:28.798Z,82.50
2023-05-23T18:37:56.188Z,83.10
2023-05-23T18:40:24.374Z,84.20
2023-05-23T18:42:52.287Z,84.70
2023-05-23T18:45:19.379Z,85.20
2023-05-23T18:47:46.429Z,86.60
2023-05-23T18:50:13.764Z,87.40
2023-05-23T18:52:41.518Z,88.10
2023-05-23T18:55:08.986Z,89.00
2023-05-23T18:57:36.264Z,89.80
2023-05-23T19:00:05.085Z,90.10
2023-05-23T19:02:35.272Z,90.40
2023-05-23T19:05:02.728Z,90.80
2023-05-23T19:07:29.830Z,91.30
2023-05-23T19:09:57.040Z,92.00
2023-05-23T19:12:24.241Z,92.30
2023-05-23T19:14:51.301Z,92.70
2023-05-23T19:17:18.347Z,93.20
2023-05-23T19:19:45.510Z,93.70
2023-05-23T19:22:12.622Z,94.00
2023-05-23T19:24:39.670Z,94.40
2023-05-23T19:27:07.075Z,94.60
2023-05-23T19:29:34.177Z,94.80
2023-05-23T19:32:01.416Z,95.40
2023-05-23T19:34:28.702Z,95.60
2023-05-23T19:36:55.815Z,95.40
2023-05-23T19:39:22.775Z,95.40
2023-05-23T19:41:49.863Z,95.90
2023-05-23T19:44:17.056Z,96.00
2023-05-23T19:46:44.104Z,96.20
2023-05-23T19:49:11.231Z,96.50
2023-05-23T19:51:38.345Z,96.90
2023-05-23T19:54:05.824Z,97.10
2023-05-23T19:56:34.546Z,97.30
2023-05-23T19:59:01.739Z,97.70
2023-05-23T20:01:30.910Z,98.30
2023-05-23T20:03:58.073Z,98.60
2023-05-23T20:06:25.388Z,99.00
2023-05-23T20:08:52.435Z,99.40
2023-05-23T20:11:21.894Z,99.60
2023-05-23T20:13:48.941Z,99.90
2023-05-23T20:16:16.732Z,99.90
2023-05-23T20:18:44.173Z,99.90
2023-05-23T20:21:11.816Z,99.90
2023-05-23T20:23:38.866Z,99.90
2023-05-23T20:26:07.078Z,99.90
2023-05-23T20:28:35.308Z,99.90
2023-05-23T20:31:02.386Z,99.90
2023-05-23T20:33:44.312Z,99.90
2023-05-23T20:36:12.595Z,99.90
2023-05-23T20:38:40.710Z,99.90
2023-05-23T20:41:07.808Z,99.90
2023-05-23T20:43:37.566Z,99.90
2023-05-23T20:46:11.889Z,99.90
2023-05-23T20:48:39.619Z,99.90
2023-05-23T20:51:07.273Z,99.90
2023-05-23T20:53:35.042Z,99.90
2023-05-23T20:56:03.506Z,99.90
2023-05-23T20:58:31.036Z,99.90
2023-05-23T21:00:59.089Z,99.90
2023-05-23T21:03:26.629Z,99.90
2023-05-23T21:05:53.836Z,99.90
2023-05-23T21:08:22.039Z,99.90
2023-05-23T21:10:54.738Z,99.90
2023-05-23T21:13:24.263Z,99.90
2023-05-23T21:15:51.611Z,99.90
2023-05-23T21:18:18.727Z,99.90
2023-05-23T21:20:45.844Z,99.90
2023-05-23T21:23:13.043Z,99.90
2023-05-23T21:25:40.182Z,99.90
2023-05-23T21:28:07.287Z,99.90
2023-05-23T21:30:34.684Z,99.90
2023-05-23T21:33:01.719Z,99.90
2023-05-23T21:35:28.761Z,99.90
2023-05-23T21:37:56.282Z,99.90
2023-05-23T21:40:25.362Z,99.90
2023-05-23T21:42:52.442Z,99.90
2023-05-23T21:45:19.795Z,99.90
2023-05-23T21:47:46.858Z,99.90
2023-05-23T21:50:13.935Z,99.90
2023-05-23T21:52:41.035Z,99.90
2023-05-23T21:55:08.207Z,99.90
2023-05-23T21:57:35.273Z,99.90
2023-05-23T22:00:02.505Z,99.90
2023-05-23T22:02:29.798Z,99.90
2023-05-23T22:04:56.952Z,99.90
2023-05-23T22:07:25.993Z,99.90
2023-05-23T22:09:54.203Z,99.90
2023-05-23T22:12:21.399Z,99.90
2023-05-23T22:14:49.590Z,99.90
2023-05-23T22:17:22.661Z,99.90
2023-05-23T22:19:52.281Z,99.90
2023-05-23T22:22:19.573Z,99.90
2023-05-23T22:24:46.588Z,99.90
2023-05-23T22:27:13.692Z,99.90
2023-05-23T22:29:40.847Z,99.90
2023-05-23T22:32:07.904Z,99.90
2023-05-23T22:34:34.968Z,99.90
2023-05-23T22:37:19.251Z,99.90
2023-05-23T22:40:00.427Z,99.90
2023-05-23T22:42:27.500Z,99.90
2023-05-23T22:45:12.642Z,99.90
2023-05-23T22:47:50.835Z,99.90
2023-05-23T22:50:37.468Z,99.90
2023-05-23T22:53:04.539Z,99.90
2023-05-23T22:55:31.806Z,99.90
2023-05-23T22:57:58.883Z,99.90
2023-05-23T23:00:26.354Z,99.90
2023-05-23T23:02:54.314Z,99.90
2023-05-23T23:05:21.969Z,99.90
2023-05-23T23:07:49.187Z,99.90
2023-05-23T23:10:18.699Z,99.90
2023-05-23T23:12:45.898Z,99.90
2023-05-23T23:15:12.934Z,99.90
2023-05-23T23:17:39.974Z,99.90
2023-05-23T23:20:12.637Z,99.90
2023-05-23T23:22:40.116Z,99.90
2023-05-23T23:25:10.969Z,99.90
2023-05-23T23:27:38.947Z,99.90
2023-05-23T23:30:09.651Z,99.90
2023-05-23T23:32:36.820Z,99.90
2023-05-23T23:35:04.021Z,99.90
2023-05-23T23:37:31.097Z,99.90
2023-05-23T23:39:58.195Z,99.90
2023-05-23T23:42:25.259Z,99.90
2023-05-23T23:44:52.309Z,99.90
2023-05-23T23:47:19.333Z,99.90
2023-05-23T23:49:46.405Z,99.90
2023-05-23T23:52:13.568Z,99.90
2023-05-23T23:54:40.554Z,99.90
2023-05-23T23:57:13.855Z,99.90
2023-05-23T23:59:42.224Z,99.90
